Time;durP1;ratioP1;P1;durP2;ratioP2;P2;SDS_P1;SDS_P2;PMS_P1;PMS_P2;Temp;Humidity;BMP_temperature;BMP_pressure;BME280_temperature;BME280_humidity;BME280_pressure;Samples;Min_cycle;Max_cycle;Signal;HPM_P1;HPM_P2
2023/01/23 00:00:41;;;;;;;1999.90;999.90;;;0.90;99.90;;;;;;5074597;28;20502;-74
2023/01/23 00:03:07;;;;;;;1999.90;999.90;;;0.90;99.90;;;;;;5074553;28;20530;-74
2023/01/23 00:05:33;;;;;;;1999.90;999.90;;;0.90;99.90;;;;;;5074602;28;20048;-73
2023/01/23 00:07:58;;;;;;;1999.90;999.90;;;0.80;99.90;;;;;;5074256;28;20107;-74
2023/01/23 00:10:24;;;;;;;1999.90;999.90;;;0.90;99.90;;;;;;5074446;28;20041;-73
2023/01/23 00:12:49;;;;;;;1999.90;999.90;;;0.80;99.90;;;;;;5074387;28;20475;-74
2023/01/23 00:15:15;;;;;;;1999.90;999.90;;;0.90;99.90;;;;;;5074443;28;20487;-74
2023/01/23 00:17:41;;;;;;;1999.90;999.90;;;0.80;99.90;;;;;;5074326;28;20120;-74
2023/01/23 00:20:09;;;;;;;1999.90;999.90;;;0.70;99.90;;;;;;5074377;28;20040;-73
2023/01/23 00:22:34;;;;;;;1999.90;999.90;;;0.80;99.90;;;;;;5074298;28;20040;-73
2023/01/23 00:25:00;;;;;;;1999.90;999.90;;;0.90;99.90;;;;;;5072456;28;20040;-74
2023/01/23 00:27:25;;;;;;;1999.90;999.90;;;0.80;99.90;;;;;;5074035;28;20029;-73
2023/01/23 00:29:52;;;;;;;1999.90;999.90;;;0.80;99.90;;;;;;5074497;28;20037;-73
2023/01/23 00:32:18;;;;;;;1999.90;999.90;;;0.80;99.90;;;;;;5074121;28;20037;-74
2023/01/23 00:34:44;;;;;;;1999.90;999.90;;;1.00;99.90;;;;;;5073753;28;20037;-73
2023/01/23 00:37:10;;;;;;;1999.90;999.90;;;0.90;99.90;;;;;;5074333;28;20036;-74
2023/01/23 00:39:36;;;;;;;1999.90;999.90;;;0.90;99.90;;;;;;5072744;28;20037;-73
2023/01/23 00:42:01;;;;;;;1999.90;999.90;;;0.90;99.90;;;;;;5073894;28;20033;-74
2023/01/23 00:44:27;;;;;;;1999.90;999.90;;;0.90;99.90;;;;;;5073975;28;20036;-74
2023/01/23 00:46:52;;;;;;;1999.90;999.90;;;0.90;99.90;;;;;;5074087;28;20033;-74
2023/01/23 00:49:21;;;;;;;1999.90;999.90;;;0.90;99.90;;;;;;5072434;28;20132;-73
2023/01/23 00:51:50;;;;;;;1999.90;999.90;;;0.90;99.90;;;;;;5077524;28;20530;-73
2023/01/23 00:54:16;;;;;;;1999.90;999.90;;;0.90;99.90;;;;;;5077084;28;20029;-73
2023/01/23 00:56:42;;;;;;;1999.90;999.90;;;0.90;99.90;;;;;;5077544;28;20048;-74
2023/01/23 00:59:08;;;;;;;1999.90;999.90;;;0.90;99.90;;;;;;5075933;28;20036;-74
2023/01/23 01:01:35;;;;;;;1999.90;999.90;;;0.90;99.90;;;;;;5077570;28;20041;-73
2023/01/23 01:04:09;;;;;;;1999.90;999.90;;;0.90;99.90;;;;;;5077063;28;20036;-73
2023/01/23 01:06:34;;;;;;;1999.90;999.90;;;0.90;99.90;;;;;;5077380;28;20029;-74
2023/01/23 01:09:00;;;;;;;1999.90;999.90;;;0.90;99.90;;;;;;5077316;28;20455;-73
2023/01/23 01:11:26;;;;;;;1999.90;999.90;;;0.90;99.90;;;;;;5075892;28;20438;-73
2023/01/23 01:13:52;;;;;;;1999.90;999.90;;;0.90;99.90;;;;;;5076703;28;20122;-74
2023/01/23 01:16:20;;;;;;;1999.90;999.90;;;1.00;99.90;;;;;;5077103;28;20041;-74
2023/01/23 01:18:45;;;;;;;1999.90;999.90;;;1.00;99.90;;;;;;5076781;28;20029;-74
2023/01/23 01:21:13;;;;;;;1999.90;999.90;;;1.00;99.90;;;;;;5077260;28;20044;-74
2023/01/23 01:23:39;;;;;;;1999.90;999.90;;;1.00;99.90;;;;;;5076904;28;20079;-73
2023/01/23 01:26:05;;;;;;;1999.90;999.90;;;1.00;99.90;;;;;;5076703;28;20032;-74
2023/01/23 01:28:33;;;;;;;1999.90;999.90;;;1.00;99.90;;;;;;5077452;28;20103;-73
2023/01/23 01:31:05;;;;;;;1999.90;999.90;;;1.00;99.90;;;;;;5082150;28;20049;-73
2023/01/23 01:33:31;;;;;;;1999.90;999.90;;;0.90;99.90;;;;;;5095192;28;20047;-73
2023/01/23 01:35:57;;;;;;;1999.90;999.90;;;1.00;99.90;;;;;;5078585;28;20041;-74
2023/01/23 01:38:23;;;;;;;1999.90;999.90;;;1.00;99.90;;;;;;5077717;28;20036;-73
2023/01/23 01:40:48;;;;;;;1999.90;999.90;;;1.00;99.90;;;;;;5077508;28;20037;-73
2023/01/23 01:43:24;;;;;;;1999.90;999.90;;;1.00;99.90;;;;;;5076410;28;20044;-73
2023/01/23 01:46:11;;;;;;;1999.90;999.90;;;1.00;99.90;;;;;;5076459;28;20120;-73
2023/01/23 01:48:48;;;;;;;1999.90;999.90;;;1.00;99.90;;;;;;5075131;28;20024;-74
2023/01/23 01:51:30;;;;;;;1999.90;999.90;;;1.00;99.90;;;;;;5077030;28;20044;-74
2023/01/23 01:54:20;;;;;;;1999.90;999.90;;;1.00;99.90;;;;;;5074901;28;20538;-74
2023/01/23 01:57:04;;;;;;;1999.90;999.90;;;1.00;99.90;;;;;;5074964;28;20067;-74
2023/01/23 01:59:40;;;;;;;1999.90;999.90;;;1.00;99.90;;;;;;5076506;28;20037;-74
2023/01/23 02:02:13;;;;;;;1999.90;999.90;;;1.00;99.90;;;;;;5076116;28;20068;-74
2023/01/23 02:04:46;;;;;;;1999.90;999.90;;;1.00;99.90;;;;;;5076147;28;20491;-74
2023/01/23 02:07:24;;;;;;;1999.90;999.90;;;1.10;99.90;;;;;;5074853;28;20032;-74
2023/01/23 02:09:51;;;;;;;1999.90;999.90;;;1.10;99.90;;;;;;5076563;28;20033;-73
2023/01/23 02:12:17;;;;;;;1999.90;999.90;;;1.10;99.90;;;;;;5074973;28;20490;-74
2023/01/23 02:14:43;;;;;;;1999.90;999.90;;;1.10;99.90;;;;;;5075852;28;20041;-74
2023/01/23 02:17:09;;;;;;;1999.90;999.90;;;1.10;99.90;;;;;;5076198;28;20033;-73
2023/01/23 02:20:10;;;;;;;1999.90;999.90;;;1.10;99.90;;;;;;5074814;28;20064;-73
2023/01/23 02:23:03;;;;;;;1999.90;999.90;;;1.10;99.90;;;;;;5032415;28;20103;-74
2023/01/23 02:25:42;;;;;;;1999.90;999.90;;;1.10;99.90;;;;;;5075971;28;20033;-74
2023/01/23 02:28:12;;;;;;;1999.90;999.90;;;1.10;99.90;;;;;;5076291;28;20033;-73
2023/01/23 02:30:39;;;;;;;1999.90;999.90;;;1.10;99.90;;;;;;5076082;28;20086;-73
2023/01/23 02:33:09;;;;;;;1999.90;999.90;;;1.10;99.90;;;;;;5073910;28;20407;-74
2023/01/23 02:35:36;;;;;;;1999.90;999.90;;;1.10;99.90;;;;;;5075335;28;20037;-74
2023/01/23 02:38:05;;;;;;;1999.90;999.90;;;1.10;99.90;;;;;;5076136;28;20029;-75
2023/01/23 02:40:36;;;;;;;1999.90;999.90;;;1.10;99.90;;;;;;5075751;28;20091;-74
2023/01/23 02:43:07;;;;;;;1999.90;999.90;;;1.10;99.90;;;;;;5075423;28;20072;-74
2023/01/23 02:45:33;;;;;;;1999.90;999.90;;;1.00;99.90;;;;;;5075943;28;20487;-74
2023/01/23 02:48:00;;;;;;;1999.90;999.90;;;1.00;99.90;;;;;;5075870;28;20033;-73
2023/01/23 02:50:26;;;;;;;1999.90;999.90;;;1.00;99.90;;;;;;5075750;28;20036;-74
2023/01/23 02:52:53;;;;;;;1999.90;999.90;;;1.00;99.90;;;;;;5075818;28;20190;-73
2023/01/23 02:55:19;;;;;;;1999.90;999.90;;;1.10;99.90;;;;;;5075570;28;20514;-74
2023/01/23 02:57:45;;;;;;;1999.90;999.90;;;1.10;99.90;;;;;;5075488;28;20570;-73
2023/01/23 03:00:21;;;;;;;1999.90;999.90;;;1.10;99.90;;;;;;5075742;28;20032;-74
2023/01/23 03:02:48;;;;;;;1999.90;999.90;;;1.10;99.90;;;;;;5075366;28;20064;-74
2023/01/23 03:05:15;;;;;;;1999.90;999.90;;;1.10;99.90;;;;;;5075203;28;20559;-74
2023/01/23 03:07:41;;;;;;;1999.90;999.90;;;1.20;99.90;;;;;;5075431;28;20162;-74
2023/01/23 03:10:09;;;;;;;1999.90;999.90;;;1.10;99.90;;;;;;5075496;28;20120;-74
2023/01/23 03:12:36;;;;;;;1999.90;999.90;;;1.10;99.90;;;;;;5075142;28;20041;-74
2023/01/23 03:15:04;;;;;;;1999.90;999.90;;;1.10;99.90;;;;;;5074129;28;20104;-74
2023/01/23 03:17:31;;;;;;;1999.90;999.90;;;1.10;99.90;;;;;;5075314;28;20029;-74
2023/01/23 03:19:57;;;;;;;1999.90;999.90;;;1.10;99.90;;;;;;5074022;28;20033;-73
2023/01/23 03:22:22;;;;;;;1999.90;999.90;;;1.10;99.90;;;;;;5073910;28;20040;-74
2023/01/23 03:24:48;;;;;;;1999.90;999.90;;;1.10;99.90;;;;;;5075090;28;20040;-74
2023/01/23 03:27:13;;;;;;;1999.90;999.90;;;1.10;99.90;;;;;;5075297;28;20063;-73
2023/01/23 03:32:24;;;;;;;1999.90;999.90;;;1.10;99.90;;;;;;5075335;28;20056;-74
2023/01/23 03:34:50;;;;;;;1999.90;999.90;;;1.10;99.90;;;;;;5074191;28;20136;-74
2023/01/23 03:37:18;;;;;;;1999.90;999.90;;;1.10;99.90;;;;;;5074927;28;20056;-74
2023/01/23 03:42:28;;;;;;;1999.90;999.90;;;1.20;99.90;;;;;;5075423;28;20032;-74
2023/01/23 03:44:54;;;;;;;1999.90;999.90;;;1.10;99.90;;;;;;5073181;28;20037;-74
2023/01/23 03:47:19;;;;;;;1999.90;999.90;;;1.10;99.90;;;;;;5074804;28;20032;-73
2023/01/23 03:49:45;;;;;;;1999.90;999.90;;;1.10;99.90;;;;;;5084510;22;20136;-75
2023/01/23 03:52:10;;;;;;;1999.90;999.90;;;1.00;99.90;;;;;;5054479;28;20037;-75
2023/01/23 03:54:36;;;;;;;1999.90;999.90;;;1.00;99.90;;;;;;5054440;28;20427;-75
2023/01/23 03:57:01;;;;;;;1999.90;999.90;;;1.10;99.90;;;;;;5054330;28;20041;-75
2023/01/23 03:59:27;;;;;;;1999.90;999.90;;;1.10;99.90;;;;;;5054533;28;20398;-75
2023/01/23 04:01:53;;;;;;;1999.90;999.90;;;1.10;99.90;;;;;;5053241;28;20033;-75
2023/01/23 04:04:18;;;;;;;1999.90;999.90;;;1.10;99.90;;;;;;5052854;28;20033;-75
2023/01/23 04:06:44;;;;;;;1999.90;999.90;;;1.10;99.90;;;;;;5054351;28;20036;-75
2023/01/23 04:09:09;;;;;;;1999.90;999.90;;;1.10;99.90;;;;;;5054162;28;20033;-75
2023/01/23 04:11:35;;;;;;;1999.90;999.90;;;1.20;99.90;;;;;;5054725;28;20029;-75
2023/01/23 04:14:00;;;;;;;1999.90;999.90;;;1.10;99.90;;;;;;5054592;28;20430;-75
2023/01/23 04:16:27;;;;;;;1999.90;999.90;;;1.10;99.90;;;;;;5054129;28;20045;-75
2023/01/23 04:18:53;;;;;;;1999.90;999.90;;;1.10;99.90;;;;;;5054180;28;20084;-75
2023/01/23 04:21:19;;;;;;;1999.90;999.90;;;1.10;99.90;;;;;;5052902;28;20087;-75
2023/01/23 04:23:45;;;;;;;1999.90;999.90;;;1.00;99.90;;;;;;5052840;28;20457;-75
2023/01/23 04:26:11;;;;;;;1999.90;999.90;;;1.00;99.90;;;;;;5052194;28;20045;-72
2023/01/23 04:28:37;;;;;;;1999.90;999.90;;;0.90;99.90;;;;;;5054150;28;20040;-72
2023/01/23 04:31:02;;;;;;;1999.90;999.90;;;0.80;99.90;;;;;;5054221;28;20037;-72
2023/01/23 04:33:28;;;;;;;1999.90;999.90;;;0.80;99.90;;;;;;5052755;28;20029;-72
2023/01/23 04:36:00;;;;;;;1999.90;999.90;;;0.80;99.90;;;;;;5053017;28;20524;-72
2023/01/23 04:38:27;;;;;;;1999.90;999.90;;;0.80;99.90;;;;;;5053593;28;20040;-72
2023/01/23 04:40:53;;;;;;;1999.90;999.90;;;0.90;99.90;;;;;;5054339;28;20069;-72
2023/01/23 04:43:19;;;;;;;1999.90;999.90;;;0.90;99.90;;;;;;5054401;28;20357;-72
2023/01/23 04:45:45;;;;;;;1999.90;999.90;;;0.90;99.90;;;;;;5053952;28;20033;-72
2023/01/23 04:48:11;;;;;;;1999.90;999.90;;;1.00;99.90;;;;;;5053433;28;20037;-72
2023/01/23 04:50:38;;;;;;;1999.90;999.90;;;1.10;99.90;;;;;;5054048;28;20518;-72
2023/01/23 04:53:04;;;;;;;1999.90;999.90;;;1.10;99.90;;;;;;5052710;28;20384;-72
2023/01/23 04:55:29;;;;;;;1999.90;999.90;;;1.10;99.90;;;;;;5053760;28;20045;-72
2023/01/23 04:57:55;;;;;;;1999.90;999.90;;;1.10;99.90;;;;;;5053904;28;20561;-72
2023/01/23 05:00:21;;;;;;;1999.90;999.90;;;1.10;99.90;;;;;;5053483;28;20037;-72
2023/01/23 05:02:48;;;;;;;1999.90;999.90;;;1.10;99.90;;;;;;5052436;28;20026;-72
2023/01/23 05:05:16;;;;;;;1999.90;999.90;;;1.20;99.90;;;;;;5053737;28;20037;-72
2023/01/23 05:07:41;;;;;;;1999.90;999.90;;;1.10;99.90;;;;;;5053644;28;20034;-72
2023/01/23 05:10:08;;;;;;;1999.90;999.90;;;1.10;99.90;;;;;;5053410;28;20037;-72
2023/01/23 05:12:33;;;;;;;1999.90;999.90;;;1.10;99.90;;;;;;5053515;28;20037;-72
2023/01/23 05:14:59;;;;;;;1999.90;999.90;;;1.10;99.90;;;;;;5053710;28;20447;-72
2023/01/23 05:17:24;;;;;;;1999.90;999.90;;;1.10;99.90;;;;;;5053057;28;20036;-72
2023/01/23 05:19:50;;;;;;;1999.90;999.90;;;1.10;99.90;;;;;;5053545;28;20363;-72
2023/01/23 05:22:16;;;;;;;1999.90;999.90;;;1.10;99.90;;;;;;5053726;28;20040;-72
2023/01/23 05:24:42;;;;;;;1999.90;999.90;;;1.10;99.90;;;;;;5053648;28;20080;-72
2023/01/23 05:27:08;;;;;;;1999.90;999.90;;;1.10;99.90;;;;;;5052228;28;20537;-72
2023/01/23 05:29:33;;;;;;;1999.90;999.90;;;1.10;99.90;;;;;;5053980;28;20038;-72
2023/01/23 05:31:59;;;;;;;1999.90;999.90;;;1.10;99.90;;;;;;5054281;28;20068;-72
2023/01/23 05:34:24;;;;;;;1999.90;999.90;;;1.10;99.90;;;;;;5053258;28;20048;-72
2023/01/23 05:36:50;;;;;;;1999.90;999.90;;;1.20;99.90;;;;;;5053931;28;20053;-72
2023/01/23 05:39:15;;;;;;;1999.90;999.90;;;1.10;99.90;;;;;;5056611;28;20065;-72
2023/01/23 05:41:41;;;;;;;1999.90;999.90;;;1.20;99.90;;;;;;5056824;28;20047;-72
2023/01/23 05:44:06;;;;;;;1999.90;999.90;;;1.20;99.90;;;;;;5056346;28;20030;-72
2023/01/23 05:46:32;;;;;;;1999.90;999.90;;;1.20;99.90;;;;;;5056492;28;20068;-72
2023/01/23 05:48:57;;;;;;;1999.90;999.90;;;1.20;99.90;;;;;;5055964;28;20106;-72
2023/01/23 05:51:30;;;;;;;1999.90;999.90;;;1.20;99.90;;;;;;5056924;28;20486;-72
2023/01/23 05:53:56;;;;;;;1999.90;999.90;;;1.20;99.90;;;;;;5056730;28;20442;-72
2023/01/23 05:56:21;;;;;;;1999.90;999.90;;;1.20;99.90;;;;;;5056311;28;20038;-72
2023/01/23 05:58:47;;;;;;;1999.90;999.90;;;1.20;99.90;;;;;;5055862;28;20864;-72
2023/01/23 06:01:12;;;;;;;1999.90;999.90;;;1.10;99.90;;;;;;5056394;28;20087;-71
2023/01/23 06:03:38;;;;;;;1999.90;999.90;;;1.10;99.90;;;;;;5048122;28;20038;-71
2023/01/23 06:06:03;;;;;;;1999.90;999.90;;;1.20;99.90;;;;;;5055945;28;20068;-72
2023/01/23 06:08:29;;;;;;;1999.90;999.90;;;1.20;99.90;;;;;;5046014;28;20426;-71
2023/01/23 06:10:57;;;;;;;1999.90;999.90;;;1.20;99.90;;;;;;5050974;28;20045;-72
2023/01/23 06:13:24;;;;;;;1999.90;999.90;;;1.10;99.90;;;;;;5053407;28;20038;-72
2023/01/23 06:15:49;;;;;;;1999.90;999.90;;;1.20;99.90;;;;;;5054868;28;20451;-70
2023/01/23 06:18:15;;;;;;;1999.90;999.90;;;1.20;99.90;;;;;;5055169;28;20049;-70
2023/01/23 06:20:40;;;;;;;1999.90;999.90;;;1.10;99.90;;;;;;5055748;28;20719;-70
2023/01/23 06:23:06;;;;;;;1999.90;999.90;;;1.10;99.90;;;;;;5055359;28;20069;-71
2023/01/23 06:25:31;;;;;;;1999.90;999.90;;;1.20;99.90;;;;;;5036766;28;20056;-71
2023/01/23 06:27:57;;;;;;;1999.90;999.90;;;1.10;99.90;;;;;;5034516;28;20034;-71
2023/01/23 06:30:22;;;;;;;1999.90;999.90;;;1.10;99.90;;;;;;5034181;28;20037;-71
2023/01/23 06:32:48;;;;;;;1999.90;999.90;;;1.10;99.90;;;;;;5047914;28;20034;-71
2023/01/23 06:35:13;;;;;;;1999.90;999.90;;;1.20;99.90;;;;;;5044197;28;20587;-71
2023/01/23 06:37:39;;;;;;;1999.90;999.90;;;1.20;99.90;;;;;;5035686;28;20561;-70
2023/01/23 06:40:05;;;;;;;1999.90;999.90;;;1.10;99.90;;;;;;5035791;28;20121;-71
2023/01/23 06:42:31;;;;;;;1999.90;999.90;;;1.20;99.90;;;;;;5035793;28;20108;-71
2023/01/23 06:44:56;;;;;;;1999.90;999.90;;;1.10;99.90;;;;;;5035535;28;20030;-71
2023/01/23 06:47:22;;;;;;;1999.90;999.90;;;1.10;99.90;;;;;;5035405;28;20034;-71
2023/01/23 06:49:48;;;;;;;1999.90;999.90;;;1.20;99.90;;;;;;5036402;28;20064;-71
2023/01/23 06:52:13;;;;;;;1999.90;999.90;;;1.20;99.90;;;;;;5055776;28;20064;-71
2023/01/23 06:54:39;;;;;;;1999.90;999.90;;;1.30;99.90;;;;;;5055280;28;20116;-71
2023/01/23 06:57:05;;;;;;;1999.90;999.90;;;1.30;99.90;;;;;;5048835;28;20080;-71
2023/01/23 06:59:31;;;;;;;1999.90;999.90;;;1.30;99.90;;;;;;5035209;28;20034;-71
2023/01/23 07:01:56;;;;;;;1999.90;999.90;;;1.30;99.90;;;;;;5035772;28;20438;-71
2023/01/23 07:04:22;;;;;;;1999.90;999.90;;;1.30;99.90;;;;;;5033959;28;20084;-71
2023/01/23 07:06:47;;;;;;;1999.90;999.90;;;1.30;99.90;;;;;;5035088;28;20396;-71
2023/01/23 07:09:13;;;;;;;1999.90;999.90;;;1.30;99.90;;;;;;5035172;28;20033;-70
2023/01/23 07:11:39;;;;;;;1999.90;999.90;;;1.30;99.90;;;;;;5035361;28;20045;-71
2023/01/23 07:14:04;;;;;;;1999.90;999.90;;;1.30;99.90;;;;;;5035510;28;20045;-71
2023/01/23 07:16:30;;;;;;;1999.90;999.90;;;1.30;99.90;;;;;;5034983;28;20069;-71
2023/01/23 07:18:57;;;;;;;1999.90;999.90;;;1.30;99.90;;;;;;5033529;28;20531;-71
2023/01/23 07:21:23;;;;;;;1999.90;999.90;;;1.40;99.90;;;;;;5035316;28;20080;-71
2023/01/23 07:23:49;;;;;;;1999.90;999.90;;;1.40;99.90;;;;;;5035407;28;20029;-71
2023/01/23 07:26:15;;;;;;;1999.90;999.90;;;1.40;99.90;;;;;;5034684;28;20084;-71
2023/01/23 07:28:41;;;;;;;1999.90;999.90;;;1.40;99.90;;;;;;5034543;28;20431;-70
2023/01/23 07:31:06;;;;;;;1999.90;999.90;;;1.30;99.90;;;;;;5035054;28;20677;-70
2023/01/23 07:33:32;;;;;;;1999.90;999.90;;;1.30;99.90;;;;;;5034927;28;20056;-70
2023/01/23 07:35:57;;;;;;;1999.90;999.90;;;1.30;99.90;;;;;;5034604;28;20146;-71
2023/01/23 07:38:24;;;;;;;1999.90;999.90;;;1.30;99.90;;;;;;5034828;28;20506;-71
2023/01/23 07:40:50;;;;;;;1999.90;999.90;;;1.30;99.90;;;;;;5033476;28;20038;-70
2023/01/23 07:43:16;;;;;;;1999.90;999.90;;;1.40;99.90;;;;;;5033352;28;20030;-71
2023/01/23 07:45:43;;;;;;;1999.90;999.90;;;1.40;99.90;;;;;;5034559;28;20116;-70
2023/01/23 07:48:09;;;;;;;1999.90;999.90;;;1.30;99.90;;;;;;5034641;28;20080;-70
2023/01/23 07:50:36;;;;;;;1999.90;999.90;;;1.30;99.90;;;;;;5034735;28;20069;-70
2023/01/23 07:53:03;;;;;;;1999.90;999.90;;;1.40;99.90;;;;;;5034925;28;20040;-70
2023/01/23 07:55:29;;;;;;;1999.90;999.90;;;1.30;99.90;;;;;;5034355;28;20153;-71
2023/01/23 07:57:55;;;;;;;1999.90;999.90;;;1.40;99.90;;;;;;5034689;28;20497;-70
2023/01/23 08:00:21;;;;;;;1999.90;999.90;;;1.40;99.90;;;;;;5032405;28;20044;-70
2023/01/23 08:02:47;;;;;;;1999.90;999.90;;;1.50;99.90;;;;;;5034353;28;20112;-70
2023/01/23 08:05:12;;;;;;;1999.90;999.90;;;1.40;99.90;;;;;;5034311;28;20044;-71
2023/01/23 08:07:38;;;;;;;1999.90;999.90;;;1.40;99.90;;;;;;5034392;28;20033;-71
2023/01/23 08:10:04;;;;;;;1999.90;999.90;;;1.40;99.90;;;;;;5032928;28;20033;-71
2023/01/23 08:12:29;;;;;;;1999.90;999.90;;;1.40;99.90;;;;;;5034802;28;20096;-71
2023/01/23 08:14:58;;;;;;;1999.90;999.90;;;1.40;99.90;;;;;;5032860;28;20119;-71
2023/01/23 08:17:23;;;;;;;1999.90;999.90;;;1.50;99.90;;;;;;5034583;28;20048;-70
2023/01/23 08:19:49;;;;;;;1999.90;999.90;;;1.50;99.90;;;;;;5034285;28;20034;-70
2023/01/23 08:22:15;;;;;;;1999.90;999.90;;;1.50;99.90;;;;;;5034428;28;20479;-71
2023/01/23 08:24:40;;;;;;;1999.90;999.90;;;1.50;99.90;;;;;;5034939;28;20062;-70
2023/01/23 08:27:06;;;;;;;1999.90;999.90;;;1.60;99.90;;;;;;5034380;28;20030;-71
2023/01/23 08:29:32;;;;;;;1999.90;999.90;;;1.60;99.90;;;;;;5033927;28;20092;-70
2023/01/23 08:31:58;;;;;;;1999.90;999.90;;;1.60;99.90;;;;;;5034329;28;20889;-71
2023/01/23 08:34:24;;;;;;;1999.90;999.90;;;1.60;99.90;;;;;;5034400;28;20500;-70
2023/01/23 08:36:50;;;;;;;1999.90;999.90;;;1.60;99.90;;;;;;5033836;28;20042;-71
2023/01/23 08:39:16;;;;;;;1999.90;999.90;;;1.60;99.90;;;;;;5032390;28;20913;-71
2023/01/23 08:41:42;;;;;;;1999.90;999.90;;;1.60;99.90;;;;;;5032943;28;20045;-70
2023/01/23 08:44:07;;;;;;;1999.90;999.90;;;1.60;99.90;;;;;;5034252;28;20078;-70
2023/01/23 08:46:33;;;;;;;1999.90;999.90;;;1.70;99.90;;;;;;5033709;28;20034;-71
2023/01/23 08:48:58;;;;;;;1999.90;999.90;;;1.60;99.90;;;;;;5033237;28;20034;-70
2023/01/23 08:51:26;;;;;;;1999.90;999.90;;;1.60;99.90;;;;;;5034055;28;20503;-70
2023/01/23 08:53:52;;;;;;;1999.90;999.90;;;1.60;99.90;;;;;;5034021;28;20488;-70
2023/01/23 08:56:19;;;;;;;1999.90;999.90;;;1.70;99.90;;;;;;5033811;28;20129;-70
2023/01/23 08:58:45;;;;;;;1999.90;999.90;;;1.70;99.90;;;;;;5033683;28;20034;-70
2023/01/23 09:01:16;;;;;;;1999.90;999.90;;;1.70;99.90;;;;;;5034053;28;20925;-70
2023/01/23 09:03:42;;;;;;;1999.90;999.90;;;1.60;99.90;;;;;;5033899;28;20042;-71
2023/01/23 09:06:10;;;;;;;1999.90;999.90;;;1.70;99.90;;;;;;5032329;28;20038;-70
2023/01/23 09:08:36;;;;;;;1999.90;999.90;;;1.70;99.90;;;;;;5033581;28;20034;-70
2023/01/23 09:11:07;;;;;;;1999.90;999.90;;;1.70;99.90;;;;;;5035069;28;20407;-70
2023/01/23 09:13:33;;;;;;;1999.90;999.90;;;1.70;99.90;;;;;;5037505;28;20030;-71
2023/01/23 09:16:03;;;;;;;1999.90;999.90;;;1.80;99.90;;;;;;5035447;28;20037;-70
2023/01/23 09:18:29;;;;;;;1999.90;999.90;;;1.90;99.90;;;;;;5036723;28;20137;-71
2023/01/23 09:20:54;;;;;;;1999.90;999.90;;;1.90;99.90;;;;;;5036980;28;20043;-71
2023/01/23 09:23:21;;;;;;;1999.90;999.90;;;2.00;99.90;;;;;;5036965;28;20103;-70
2023/01/23 09:25:46;;;;;;;1999.90;999.90;;;2.10;99.90;;;;;;5035457;28;20037;-70
2023/01/23 09:28:12;;;;;;;1999.90;999.90;;;2.20;99.90;;;;;;5036776;28;20033;-70
2023/01/23 09:30:38;;;;;;;1999.90;999.90;;;2.20;99.90;;;;;;5035872;28;20037;-71
2023/01/23 09:33:04;;;;;;;1999.90;999.90;;;2.30;99.90;;;;;;5036990;28;20091;-71
2023/01/23 09:35:30;;;;;;;1999.90;999.90;;;2.30;99.90;;;;;;5036455;28;20565;-70
2023/01/23 09:37:58;;;;;;;1999.90;999.90;;;2.40;99.90;;;;;;5036854;28;20152;-71
2023/01/23 09:40:25;;;;;;;1999.90;999.90;;;2.40;99.90;;;;;;5036674;28;20470;-71
2023/01/23 09:42:53;;;;;;;1999.90;999.90;;;2.50;99.90;;;;;;5036676;28;20089;-71
2023/01/23 09:45:23;;;;;;;1999.90;999.90;;;2.50;99.90;;;;;;5036562;28;20091;-70
2023/01/23 09:48:03;;;;;;;1999.90;999.90;;;2.50;99.90;;;;;;5036275;28;20500;-71
2023/01/23 09:50:35;;;;;;;1999.90;999.90;;;2.40;99.90;;;;;;5064284;22;20049;-77
2023/01/23 09:53:16;;;;;;;1999.90;999.90;;;2.40;99.90;;;;;;5056867;28;20483;-77
2023/01/23 09:55:48;;;;;;;1999.90;999.90;;;2.50;99.90;;;;;;5056391;28;20041;-76
2023/01/23 09:58:42;;;;;;;1999.90;999.90;;;2.50;99.90;;;;;;5056782;28;20037;-77
2023/01/23 10:01:12;;;;;;;1999.90;999.90;;;2.50;99.90;;;;;;5036602;28;20030;-77
2023/01/23 10:03:38;;;;;;;1999.90;999.90;;;2.50;99.90;;;;;;5037053;28;20030;-77
2023/01/23 10:06:12;;;;;;;1999.90;999.90;;;2.50;99.90;;;;;;5036732;28;20038;-77
2023/01/23 10:09:10;;;;;;;1999.90;999.90;;;2.50;99.90;;;;;;5036884;28;20117;-77
2023/01/23 10:11:54;;;;;;;1999.90;999.90;;;2.40;99.90;;;;;;5036359;28;20038;-77
2023/01/23 10:14:29;;;;;;;1999.90;999.90;;;2.30;99.90;;;;;;5036741;28;20033;-78
2023/01/23 10:17:28;;;;;;;1999.90;999.90;;;2.30;99.90;;;;;;5036274;28;20041;-77
2023/01/23 10:20:28;;;;;;;1999.90;999.90;;;2.20;99.90;;;;;;5016323;28;20026;-77
2023/01/23 10:23:04;;;;;;;1999.90;999.90;;;2.20;99.90;;;;;;5031181;28;20475;-78
2023/01/23 10:25:34;;;;;;;1999.90;999.90;;;2.20;99.90;;;;;;5016596;28;20038;-77
2023/01/23 10:28:28;;;;;;;1999.90;999.90;;;2.20;99.90;;;;;;5016205;28;20038;-77
2023/01/23 10:30:59;;;;;;;1999.90;999.90;;;2.30;99.90;;;;;;5016321;28;20034;-77
2023/01/23 10:33:47;;;;;;;1999.90;999.90;;;2.40;99.90;;;;;;5016203;28;20042;-77
2023/01/23 10:36:36;;;;;;;1999.90;999.90;;;2.40;99.90;;;;;;5014717;28;20048;-77
2023/01/23 10:39:10;;;;;;;1999.90;999.90;;;2.40;99.90;;;;;;5014673;28;20061;-77
2023/01/23 10:41:36;;;;;;;1999.90;999.90;;;2.50;99.90;;;;;;5014882;28;20066;-77
2023/01/23 10:44:08;;;;;;;1999.90;999.90;;;2.50;99.90;;;;;;5019078;28;20125;-77
2023/01/23 10:47:07;;;;;;;1999.90;999.90;;;2.60;99.90;;;;;;5034717;28;20038;-77
2023/01/23 10:49:36;;;;;;;1999.90;999.90;;;2.60;99.90;;;;;;5035219;28;20042;-77
2023/01/23 10:52:02;;;;;;;1999.90;999.90;;;2.50;99.90;;;;;;5034530;28;20109;-78
2023/01/23 10:54:28;;;;;;;1999.90;999.90;;;2.50;99.90;;;;;;5034568;28;20506;-77
2023/01/23 10:56:58;;;;;;;1999.90;999.90;;;2.60;99.90;;;;;;5036759;28;20041;-79
2023/01/23 10:59:27;;;;;;;1999.90;999.90;;;2.60;99.90;;;;;;5035056;28;20033;-79
2023/01/23 11:02:17;;;;;;;1999.90;999.90;;;2.70;99.90;;;;;;5035512;28;20767;-81
2023/01/23 11:04:45;;;;;;;1999.90;999.90;;;2.70;99.90;;;;;;5036644;28;20113;-82
2023/01/23 11:07:30;;;;;;;1999.90;999.90;;;2.90;99.90;;;;;;5039258;28;20042;-82
2023/01/23 11:09:58;;;;;;;1999.90;999.90;;;3.00;99.90;;;;;;5040272;28;20022;-83
2023/01/23 11:12:32;;;;;;;1999.90;999.90;;;3.00;99.90;;;;;;5039337;28;20034;-82
2023/01/23 11:15:12;;;;;;;1999.90;999.90;;;3.00;99.90;;;;;;5040584;28;20061;-82
2023/01/23 11:17:40;;;;;;;1999.90;999.90;;;2.90;99.90;;;;;;5043836;28;20049;-81
2023/01/23 11:20:36;;;;;;;1999.90;999.90;;;2.90;99.90;;;;;;5041748;28;20033;-81
2023/01/23 11:23:12;;;;;;;1999.90;999.90;;;2.90;99.90;;;;;;5043071;28;20041;-82
2023/01/23 11:25:39;;;;;;;1999.90;999.90;;;2.90;99.90;;;;;;5046057;28;20033;-82
2023/01/23 11:28:33;;;;;;;1999.90;999.90;;;2.90;99.90;;;;;;5045340;28;20096;-82
2023/01/23 11:31:13;;;;;;;1999.90;999.90;;;2.90;99.90;;;;;;5043001;28;20037;-83
2023/01/23 11:34:00;;;;;;;1999.90;999.90;;;3.00;99.90;;;;;;5044616;28;20901;-82
2023/01/23 11:36:52;;;;;;;1999.90;999.90;;;3.10;99.90;;;;;;5038339;28;20493;-82
2023/01/23 11:39:29;;;;;;;1999.90;999.90;;;3.30;99.90;;;;;;5040129;28;20770;-82
2023/01/23 11:41:56;;;;;;;1999.90;999.90;;;3.30;99.90;;;;;;5037585;28;20044;-82
2023/01/23 11:44:22;;;;;;;1999.90;999.90;;;3.40;99.90;;;;;;5038414;28;20057;-83
2023/01/23 11:47:16;;;;;;;1999.90;999.90;;;3.30;99.90;;;;;;5037866;28;20406;-82
2023/01/23 11:49:50;;;;;;;1999.90;999.90;;;3.40;99.90;;;;;;5035556;28;20042;-82
2023/01/23 11:52:37;;;;;;;1999.90;999.90;;;3.40;99.90;;;;;;5038025;28;20034;-83
2023/01/23 11:55:08;;;;;;;1999.90;999.90;;;3.50;99.90;;;;;;5035860;28;20049;-83
2023/01/23 11:57:38;;;;;;;1999.90;999.90;;;3.50;99.90;;;;;;5037084;28;20037;-81
2023/01/23 12:00:07;;;;;;;1999.90;999.90;;;3.50;99.90;;;;;;5035210;28;20022;-82
2023/01/23 12:02:44;;;;;;;1999.90;999.90;;;3.50;99.90;;;;;;5035154;28;20114;-82
2023/01/23 12:05:31;;;;;;;1999.90;999.90;;;3.40;99.90;;;;;;5039662;28;20037;-82
2023/01/23 12:08:23;;;;;;;1999.90;999.90;;;3.50;99.90;;;;;;5037626;28;20026;-82
2023/01/23 12:11:15;;;;;;;1999.90;999.90;;;3.50;99.90;;;;;;5033879;28;20103;-82
2023/01/23 12:13:58;;;;;;;1999.90;999.90;;;3.50;99.90;;;;;;5034869;28;20521;-82
2023/01/23 12:16:47;;;;;;;1999.90;999.90;;;3.60;99.90;;;;;;5034136;28;20046;-82
2023/01/23 12:19:28;;;;;;;1999.90;999.90;;;3.60;99.90;;;;;;5035556;28;20036;-82
2023/01/23 12:22:41;;;;;;;1999.90;999.90;;;3.60;99.90;;;;;;5034265;28;20038;-83
2023/01/23 12:25:35;;;;;;;1999.90;999.90;;;3.60;99.90;;;;;;4964456;28;20049;-82